sensor_id;sensor_type;location;lat;lon;timestamp;pressure;altitude;pressure_sealevel;temperature;humidity
11223;BME280;5668;52.012;8.724;2023-08-31T05:46:20;99450.13;;;15.14;99.58
11223;BME280;5668;52.012;8.724;2023-08-31T05:48:48;99450.66;;;15.17;99.35
11223;BME280;5668;52.012;8.724;2023-08-31T05:51:15;99442.63;;;15.19;99.03
11223;BME280;5668;52.012;8.724;2023-08-31T05:53:42;99447.88;;;15.27;99.55
11223;BME280;5668;52.012;8.724;2023-08-31T05:56:10;99450.19;;;15.30;99.30
11223;BME280;5668;52.012;8.724;2023-08-31T05:58:37;99451.84;;;15.31;99.28
11223;BME280;5668;52.012;8.724;2023-08-31T06:01:05;99455.44;;;15.30;99.21
11223;BME280;5668;52.012;8.724;2023-08-31T06:03:34;99451.84;;;15.31;99.26
11223;BME280;5668;52.012;8.724;2023-08-31T06:06:02;99451.84;;;15.31;99.20
11223;BME280;5668;52.012;8.724;2023-08-31T06:08:30;99457.09;;;15.31;98.96
11223;BME280;5668;52.012;8.724;2023-08-31T06:10:57;99456.75;;;15.34;98.91
11223;BME280;5668;52.012;8.724;2023-08-31T06:13:25;99455.78;;;15.35;99.02
11223;BME280;5668;52.012;8.724;2023-08-31T06:15:52;99462.34;;;15.39;98.88
11223;BME280;5668;52.012;8.724;2023-08-31T06:18:21;99461.69;;;15.37;99.01
11223;BME280;5668;52.012;8.724;2023-08-31T06:20:50;99452.03;;;15.37;99.06
11223;BME280;5668;52.012;8.724;2023-08-31T06:23:18;99462.50;;;15.37;99.44
11223;BME280;5668;52.012;8.724;2023-08-31T06:25:45;99460.84;;;15.36;99.32
11223;BME280;5668;52.012;8.724;2023-08-31T06:28:12;99452.84;;;15.38;99.85
11223;BME280;5668;52.012;8.724;2023-08-31T06:30:41;99461.69;;;15.37;99.69
11223;BME280;5668;52.012;8.724;2023-08-31T06:33:12;99453.97;;;15.35;99.70
11223;BME280;5668;52.012;8.724;2023-08-31T06:35:39;99452.84;;;15.38;99.85
11223;BME280;5668;52.012;8.724;2023-08-31T06:38:08;99464.47;;;15.43;99.96
11223;BME280;5668;52.012;8.724;2023-08-31T06:40:35;99467.47;;;15.48;100.00
11223;BME280;5668;52.012;8.724;2023-08-31T06:43:02;99460.91;;;15.53;99.96
11223;BME280;5668;52.012;8.724;2023-08-31T06:45:30;99461.47;;;15.56;99.65
11223;BME280;5668;52.012;8.724;2023-08-31T06:47:57;99464.06;;;15.56;98.71
11223;BME280;5668;52.012;8.724;2023-08-31T06:50:24;99464.06;;;15.56;98.99
11223;BME280;5668;52.012;8.724;2023-08-31T06:52:51;99473.25;;;15.60;99.04
11223;BME280;5668;52.012;8.724;2023-08-31T06:55:20;99471.09;;;15.64;98.70
11223;BME280;5668;52.012;8.724;2023-08-31T06:57:47;99469.31;;;15.64;98.48
11223;BME280;5668;52.012;8.724;2023-08-31T07:00:15;99476.69;;;15.61;98.32
11223;BME280;5668;52.012;8.724;2023-08-31T07:02:42;99486.03;;;15.63;98.67
11223;BME280;5668;52.012;8.724;2023-08-31T07:05:11;99495.88;;;15.69;98.71
11223;BME280;5668;52.012;8.724;2023-08-31T07:07:38;99488.19;;;15.76;98.42
11223;BME280;5668;52.012;8.724;2023-08-31T07:10:07;99487.19;;;15.77;98.36
11223;BME280;5668;52.012;8.724;2023-08-31T07:12:36;99486.72;;;15.81;98.17
11223;BME280;5668;52.012;8.724;2023-08-31T07:15:04;99500.78;;;15.80;98.10
11223;BME280;5668;52.012;8.724;2023-08-31T07:17:31;99488.66;;;15.79;98.06
11223;BME280;5668;52.012;8.724;2023-08-31T07:19:59;99486.88;;;15.80;98.09
11223;BME280;5668;52.012;8.724;2023-08-31T07:22:26;99490.97;;;15.82;98.11
11223;BME280;5668;52.012;8.724;2023-08-31T07:24:53;99499.50;;;15.84;98.09
11223;BME280;5668;52.012;8.724;2023-08-31T07:27:20;99503.13;;;15.92;99.04
11223;BME280;5668;52.012;8.724;2023-08-31T07:29:49;99496.91;;;16.01;99.02
11223;BME280;5668;52.012;8.724;2023-08-31T07:32:16;99492.16;;;16.04;99.27
11223;BME280;5668;52.012;8.724;2023-08-31T07:34:43;99497.72;;;16.09;98.87
11223;BME280;5668;52.012;8.724;2023-08-31T07:37:11;99500.03;;;16.12;98.80
11223;BME280;5668;52.012;8.724;2023-08-31T07:39:38;99508.72;;;16.21;98.89
11223;BME280;5668;52.012;8.724;2023-08-31T07:42:06;99512.50;;;16.26;98.69
11223;BME280;5668;52.012;8.724;2023-08-31T07:44:33;99513.81;;;16.31;98.40
11223;BME280;5668;52.012;8.724;2023-08-31T07:47:02;99510.69;;;16.35;98.02
11223;BME280;5668;52.012;8.724;2023-08-31T07:49:29;99509.56;;;16.38;97.67
11223;BME280;5668;52.012;8.724;2023-08-31T07:51:56;99513.97;;;16.37;96.69
11223;BME280;5668;52.012;8.724;2023-08-31T07:54:23;99519.84;;;16.39;96.64
11223;BME280;5668;52.012;8.724;2023-08-31T07:56:52;99517.22;;;16.39;96.19
11223;BME280;5668;52.012;8.724;2023-08-31T07:59:19;99516.91;;;16.42;95.90
11223;BME280;5668;52.012;8.724;2023-08-31T08:01:47;99521.03;;;16.45;96.12
11223;BME280;5668;52.012;8.724;2023-08-31T08:04:15;99518.25;;;16.46;95.84
11223;BME280;5668;52.012;8.724;2023-08-31T08:06:45;99518.56;;;16.43;95.52
11223;BME280;5668;52.012;8.724;2023-08-31T08:09:12;99518.41;;;16.45;95.65
11223;BME280;5668;52.012;8.724;2023-08-31T08:11:39;99527.72;;;16.47;95.92
11223;BME280;5668;52.012;8.724;2023-08-31T08:14:08;99525.78;;;16.49;96.06
11223;BME280;5668;52.012;8.724;2023-08-31T08:16:35;99528.38;;;16.49;95.33
11223;BME280;5668;52.012;8.724;2023-08-31T08:19:02;99528.38;;;16.49;95.48
11223;BME280;5668;52.012;8.724;2023-08-31T08:21:31;99534.47;;;16.50;95.69
11223;BME280;5668;52.012;8.724;2023-08-31T08:23:58;99536.25;;;16.49;95.67
11223;BME280;5668;52.012;8.724;2023-08-31T08:26:25;99533.63;;;16.49;95.88
11223;BME280;5668;52.012;8.724;2023-08-31T08:28:53;99534.63;;;16.48;96.45
11223;BME280;5668;52.012;8.724;2023-08-31T08:31:20;99531.00;;;16.49;96.88
11223;BME280;5668;52.012;8.724;2023-08-31T08:33:47;99544.13;;;16.49;96.69
11223;BME280;5668;52.012;8.724;2023-08-31T08:36:14;99540.53;;;16.50;96.98
11223;BME280;5668;52.012;8.724;2023-08-31T08:38:43;99536.25;;;16.49;97.12
11223;BME280;5668;52.012;8.724;2023-08-31T08:41:10;99535.94;;;16.52;97.27
11223;BME280;5668;52.012;8.724;2023-08-31T08:43:38;99537.59;;;16.53;97.45
11223;BME280;5668;52.012;8.724;2023-08-31T08:46:09;99543.00;;;16.52;97.82
11223;BME280;5668;52.012;8.724;2023-08-31T08:48:37;99538.56;;;16.52;97.77
11223;BME280;5668;52.012;8.724;2023-08-31T08:51:05;99535.75;;;16.54;97.99
11223;BME280;5668;52.012;8.724;2023-08-31T08:53:34;99541.81;;;16.54;98.37
11223;BME280;5668;52.012;8.724;2023-08-31T08:56:02;99540.53;;;16.58;98.17
11223;BME280;5668;52.012;8.724;2023-08-31T08:58:30;99548.09;;;16.61;98.30
11223;BME280;5668;52.012;8.724;2023-08-31T09:00:57;99544.16;;;16.66;98.81
11223;BME280;5668;52.012;8.724;2023-08-31T09:03:24;99543.84;;;16.69;98.88
11223;BME280;5668;52.012;8.724;2023-08-31T09:05:52;99545.31;;;16.71;98.94
11223;BME280;5668;52.012;8.724;2023-08-31T09:08:26;99543.19;;;16.75;99.17
11223;BME280;5668;52.012;8.724;2023-08-31T09:10:56;99542.84;;;16.78;98.96
11223;BME280;5668;52.012;8.724;2023-08-31T09:13:27;99534.78;;;16.79;98.99
11223;BME280;5668;52.012;8.724;2023-08-31T09:15:55;99532.00;;;16.81;98.67
11223;BME280;5668;52.012;8.724;2023-08-31T09:18:24;99538.91;;;16.82;98.17
11223;BME280;5668;52.012;8.724;2023-08-31T09:20:52;99534.94;;;16.86;98.12
11223;BME280;5668;52.012;8.724;2023-08-31T09:23:20;99529.38;;;16.89;97.86
11223;BME280;5668;52.012;8.724;2023-08-31T09:25:49;99531.84;;;16.90;98.09
11223;BME280;5668;52.012;8.724;2023-08-31T09:28:18;99532.66;;;16.91;98.20
11223;BME280;5668;52.012;8.724;2023-08-31T09:30:48;99537.91;;;16.91;98.03
11223;BME280;5668;52.012;8.724;2023-08-31T09:33:17;99533.63;;;16.98;97.93
11223;BME280;5668;52.012;8.724;2023-08-31T09:35:51;99539.03;;;17.05;98.27
11223;BME280;5668;52.012;8.724;2023-08-31T09:38:19;99531.47;;;17.10;97.84
11223;BME280;5668;52.012;8.724;2023-08-31T09:40:46;99536.38;;;17.13;97.47
11223;BME280;5668;52.012;8.724;2023-08-31T09:43:19;99534.06;;;17.18;96.88
11223;BME280;5668;52.012;8.724;2023-08-31T09:45:49;99534.38;;;17.15;95.97
11223;BME280;5668;52.012;8.724;2023-08-31T09:48:17;99530.47;;;17.19;95.84
11223;BME280;5668;52.012;8.724;2023-08-31T09:50:45;99528.50;;;17.21;95.09
11223;BME280;5668;52.012;8.724;2023-08-31T09:53:12;99540.81;;;17.20;94.36
11223;BME280;5668;52.012;8.724;2023-08-31T09:55:43;99527.84;;;17.19;94.22
11223;BME280;5668;52.012;8.724;2023-08-31T09:58:11;99530.59;;;17.25;93.53
11223;BME280;5668;52.012;8.724;2023-08-31T10:00:39;99531.59;;;17.24;93.15
11223;BME280;5668;52.012;8.724;2023-08-31T10:03:08;99530.75;;;17.32;93.49
11223;BME280;5668;52.012;8.724;2023-08-31T10:05:38;99527.44;;;17.30;92.71
11223;BME280;5668;52.012;8.724;2023-08-31T10:08:05;99534.34;;;17.31;91.79
11223;BME280;5668;52.012;8.724;2023-08-31T10:10:33;99539.28;;;17.34;91.65
11223;BME280;5668;52.012;8.724;2023-08-31T10:13:03;99541.91;;;17.34;91.49
11223;BME280;5668;52.012;8.724;2023-08-31T10:15:33;99544.53;;;17.34;91.80
11223;BME280;5668;52.012;8.724;2023-08-31T10:18:00;99538.44;;;17.41;92.10
11223;BME280;5668;52.012;8.724;2023-08-31T10:20:30;99554.50;;;17.47;91.71
11223;BME280;5668;52.012;8.724;2023-08-31T10:22:59;99548.41;;;17.46;91.75
11223;BME280;5668;52.012;8.724;2023-08-31T10:25:59;99563.19;;;17.47;90.61
11223;BME280;5668;52.012;8.724;2023-08-31T10:28:27;99558.09;;;17.46;90.42
11223;BME280;5668;52.012;8.724;2023-08-31T10:31:01;99564.19;;;17.46;90.01
11223;BME280;5668;52.012;8.724;2023-08-31T10:33:31;99558.47;;;17.42;89.28
11223;BME280;5668;52.012;8.724;2023-08-31T10:36:00;99560.44;;;17.40;88.89
11223;BME280;5668;52.012;8.724;2023-08-31T10:38:29;99558.13;;;17.37;88.36
11223;BME280;5668;52.012;8.724;2023-08-31T10:43:48;99558.16;;;17.29;88.13
11223;BME280;5668;52.012;8.724;2023-08-31T10:46:26;99557.53;;;17.27;88.06
11223;BME280;5668;52.012;8.724;2023-08-31T10:48:55;99546.84;;;17.29;88.11
11223;BME280;5668;52.012;8.724;2023-08-31T10:51:25;99547.00;;;17.35;88.30
11223;BME280;5668;52.012;8.724;2023-08-31T10:54:03;99535.97;;;17.40;88.45
11223;BME280;5668;52.012;8.724;2023-08-31T10:56:31;99542.69;;;17.42;88.50
11223;BME280;5668;52.012;8.724;2023-08-31T10:58:59;99544.13;;;17.53;88.45
11223;BME280;5668;52.012;8.724;2023-08-31T11:04:38;99545.88;;;17.61;88.87
11223;BME280;5668;52.012;8.724;2023-08-31T11:07:23;99549.38;;;17.61;88.45
11223;BME280;5668;52.012;8.724;2023-08-31T11:09:50;99549.22;;;17.63;87.75
11223;BME280;5668;52.012;8.724;2023-08-31T11:12:21;99544.25;;;17.60;87.83
11223;BME280;5668;52.012;8.724;2023-08-31T11:14:49;99556.09;;;17.56;87.50
11223;BME280;5668;52.012;8.724;2023-08-31T11:17:17;99547.88;;;17.59;87.50
11223;BME280;5668;52.012;8.724;2023-08-31T11:19:45;99554.47;;;17.63;87.90
11223;BME280;5668;52.012;8.724;2023-08-31T11:22:12;99553.63;;;17.62;88.25
11223;BME280;5668;52.012;8.724;2023-08-31T11:24:41;99548.06;;;17.65;88.77
11223;BME280;5668;52.012;8.724;2023-08-31T11:27:09;99550.16;;;17.70;89.22
11223;BME280;5668;52.012;8.724;2023-08-31T11:29:43;99550.16;;;17.70;88.31
11223;BME280;5668;52.012;8.724;2023-08-31T11:32:11;99544.38;;;17.74;88.59
11223;BME280;5668;52.012;8.724;2023-08-31T11:34:41;99545.53;;;17.80;89.42
11223;BME280;5668;52.012;8.724;2023-08-31T11:37:09;99555.63;;;17.91;89.78
11223;BME280;5668;52.012;8.724;2023-08-31T11:39:37;99548.69;;;17.98;90.19
11223;BME280;5668;52.012;8.724;2023-08-31T11:42:07;99539.44;;;18.10;90.64
11223;BME280;5668;52.012;8.724;2023-08-31T11:44:35;99540.97;;;18.19;90.33
11223;BME280;5668;52.012;8.724;2023-08-31T11:47:02;99539.94;;;18.29;89.23
11223;BME280;5668;52.012;8.724;2023-08-31T11:49:30;99541.25;;;18.33;86.93
11223;BME280;5668;52.012;8.724;2023-08-31T11:51:57;99546.50;;;18.33;84.79
11223;BME280;5668;52.012;8.724;2023-08-31T11:54:25;99556.53;;;18.29;83.42
11223;BME280;5668;52.012;8.724;2023-08-31T11:56:52;99555.38;;;18.32;84.19
11223;BME280;5668;52.012;8.724;2023-08-31T11:59:21;99570.22;;;18.25;84.46
11223;BME280;5668;52.012;8.724;2023-08-31T12:01:51;99571.28;;;18.15;86.44
11223;BME280;5668;52.012;8.724;2023-08-31T12:04:21;99577.28;;;18.01;87.28
11223;BME280;5668;52.012;8.724;2023-08-31T12:06:50;99568.44;;;17.94;87.25
11223;BME280;5668;52.012;8.724;2023-08-31T12:09:20;99576.81;;;17.90;87.75
11223;BME280;5668;52.012;8.724;2023-08-31T12:11:51;99573.41;;;17.89;88.48
11223;BME280;5668;52.012;8.724;2023-08-31T12:14:21;99579.13;;;17.93;89.06
11223;BME280;5668;52.012;8.724;2023-08-31T12:16:48;99579.63;;;17.96;89.39
11223;BME280;5668;52.012;8.724;2023-08-31T12:19:16;99585.50;;;17.98;89.92
11223;BME280;5668;52.012;8.724;2023-08-31T12:21:45;99578.91;;;18.02;90.37
11223;BME280;5668;52.012;8.724;2023-08-31T12:24:13;99575.94;;;18.05;90.72
11223;BME280;5668;52.012;8.724;2023-08-31T12:26:41;99575.59;;;18.08;91.18
11223;BME280;5668;52.012;8.724;2023-08-31T12:29:09;99574.88;;;18.14;91.67
11223;BME280;5668;52.012;8.724;2023-08-31T12:31:38;99585.41;;;18.14;91.43
11223;BME280;5668;52.012;8.724;2023-08-31T12:34:05;99588.56;;;18.10;91.83
11223;BME280;5668;52.012;8.724;2023-08-31T12:36:33;99596.19;;;17.97;92.22
11223;BME280;5668;52.012;8.724;2023-08-31T12:39:02;99606.28;;;17.85;93.80
11223;BME280;5668;52.012;8.724;2023-08-31T12:41:33;99601.75;;;17.63;94.69
11223;BME280;5668;52.012;8.724;2023-08-31T12:44:00;99584.38;;;17.46;95.97
11223;BME280;5668;52.012;8.724;2023-08-31T12:46:29;99598.53;;;17.36;96.18
11223;BME280;5668;52.012;8.724;2023-08-31T12:48:58;99589.03;;;17.35;96.88
11223;BME280;5668;52.012;8.724;2023-08-31T12:51:25;99584.72;;;17.42;97.99
11223;BME280;5668;52.012;8.724;2023-08-31T12:53:53;99587.47;;;17.57;98.23
11223;BME280;5668;52.012;8.724;2023-08-31T12:56:20;99585.31;;;17.69;97.90
11223;BME280;5668;52.012;8.724;2023-08-31T12:58:49;99583.31;;;17.79;97.71
11223;BME280;5668;52.012;8.724;2023-08-31T13:01:17;99589.81;;;17.91;96.74
11223;BME280;5668;52.012;8.724;2023-08-31T13:03:44;99582.03;;;17.98;96.72
11223;BME280;5668;52.012;8.724;2023-08-31T13:06:13;99587.78;;;18.01;95.89
11223;BME280;5668;52.012;8.724;2023-08-31T13:08:40;99586.44;;;18.05;95.80
11223;BME280;5668;52.012;8.724;2023-08-31T13:11:09;99585.13;;;18.09;95.55
11223;BME280;5668;52.012;8.724;2023-08-31T13:13:36;99587.88;;;18.16;95.31
11223;BME280;5668;52.012;8.724;2023-08-31T13:16:03;99581.47;;;18.18;95.19
11223;BME280;5668;52.012;8.724;2023-08-31T13:18:31;99588.00;;;18.23;95.07
11223;BME280;5668;52.012;8.724;2023-08-31T13:20:58;99587.66;;;18.26;94.48
11223;BME280;5668;52.012;8.724;2023-08-31T13:23:26;99594.19;;;18.30;94.34
11223;BME280;5668;52.012;8.724;2023-08-31T13:25:54;99583.50;;;18.31;94.57
11223;BME280;5668;52.012;8.724;2023-08-31T13:28:22;99584.97;;;18.34;94.51
11223;BME280;5668;52.012;8.724;2023-08-31T13:30:49;99575.72;;;18.38;94.61
11223;BME280;5668;52.012;8.724;2023-08-31T13:33:16;99576.22;;;18.41;94.49
11223;BME280;5668;52.012;8.724;2023-08-31T13:35:45;99578.84;;;18.41;94.52
11223;BME280;5668;52.012;8.724;2023-08-31T13:38:12;99576.72;;;18.37;94.06
11223;BME280;5668;52.012;8.724;2023-08-31T13:40:41;99585.66;;;18.28;93.66
11223;BME280;5668;52.012;8.724;2023-08-31T13:43:08;99598.06;;;18.19;94.49
11223;BME280;5668;52.012;8.724;2023-08-31T13:45:35;99595.44;;;18.19;94.73
11223;BME280;5668;52.012;8.724;2023-08-31T13:48:02;99617.91;;;18.22;94.50
11223;BME280;5668;52.012;8.724;2023-08-31T13:50:30;99611.00;;;18.21;93.87
11223;BME280;5668;52.012;8.724;2023-08-31T13:52:57;99618.28;;;18.18;93.39
11223;BME280;5668;52.012;8.724;2023-08-31T13:55:25;99619.78;;;18.13;93.07
11223;BME280;5668;52.012;8.724;2023-08-31T13:57:54;99627.25;;;18.01;91.03
11223;BME280;5668;52.012;8.724;2023-08-31T14:00:21;99642.06;;;17.94;90.32
11223;BME280;5668;52.012;8.724;2023-08-31T14:02:48;99640.16;;;17.80;89.99
11223;BME280;5668;52.012;8.724;2023-08-31T14:05:16;99648.38;;;17.69;89.60
11223;BME280;5668;52.012;8.724;2023-08-31T14:07:43;99647.41;;;17.62;87.98
11223;BME280;5668;52.012;8.724;2023-08-31T14:10:11;99644.47;;;17.57;86.78
11223;BME280;5668;52.012;8.724;2023-08-31T14:12:39;99638.03;;;17.59;86.74
11223;BME280;5668;52.012;8.724;2023-08-31T14:15:08;99638.84;;;17.60;86.53
11223;BME280;5668;52.012;8.724;2023-08-31T14:17:35;99635.22;;;17.61;85.96
11223;BME280;5668;52.012;8.724;2023-08-31T14:20:03;99648.25;;;17.62;86.48
11223;BME280;5668;52.012;8.724;2023-08-31T14:22:35;99644.78;;;17.62;86.97
11223;BME280;5668;52.012;8.724;2023-08-31T14:25:02;99635.94;;;17.63;87.23
11223;BME280;5668;52.012;8.724;2023-08-31T14:27:30;99646.28;;;17.64;87.88
11223;BME280;5668;52.012;8.724;2023-08-31T14:29:57;99641.84;;;17.65;88.68
11223;BME280;5668;52.012;8.724;2023-08-31T14:32:25;99637.22;;;17.67;88.57
11223;BME280;5668;52.012;8.724;2023-08-31T14:34:54;99637.72;;;17.70;88.66
11223;BME280;5668;52.012;8.724;2023-08-31T14:37:21;99640.34;;;17.70;88.83
11223;BME280;5668;52.012;8.724;2023-08-31T14:39:49;99637.53;;;17.72;88.99
11223;BME280;5668;52.012;8.724;2023-08-31T14:42:16;99642.13;;;17.78;89.22
11223;BME280;5668;52.012;8.724;2023-08-31T14:44:46;99642.63;;;17.82;89.00
11223;BME280;5668;52.012;8.724;2023-08-31T14:47:13;99639.47;;;17.86;88.98
11223;BME280;5668;52.012;8.724;2023-08-31T14:49:42;99645.19;;;17.90;88.57
11223;BME280;5668;52.012;8.724;2023-08-31T14:52:09;99647.31;;;17.94;88.61
11223;BME280;5668;52.012;8.724;2023-08-31T14:54:36;99641.69;;;17.97;88.29
11223;BME280;5668;52.012;8.724;2023-08-31T14:57:04;99645.00;;;17.99;87.56
11223;BME280;5668;52.012;8.724;2023-08-31T14:59:32;99646.63;;;18.00;87.23
11223;BME280;5668;52.012;8.724;2023-08-31T15:01:59;99643.00;;;18.01;87.05
11223;BME280;5668;52.012;8.724;2023-08-31T15:04:28;99649.91;;;18.02;86.79
11223;BME280;5668;52.012;8.724;2023-08-31T15:06:56;99645.94;;;18.06;86.49
11223;BME280;5668;52.012;8.724;2023-08-31T15:09:23;99652.84;;;18.07;86.44
11223;BME280;5668;52.012;8.724;2023-08-31T15:11:52;99653.81;;;18.06;85.54
11223;BME280;5668;52.012;8.724;2023-08-31T15:14:20;99656.47;;;18.06;85.12
11223;BME280;5668;52.012;8.724;2023-08-31T15:16:47;99662.72;;;18.05;84.88
11223;BME280;5668;52.012;8.724;2023-08-31T15:19:14;99662.41;;;18.00;84.85
11223;BME280;5668;52.012;8.724;2023-08-31T15:21:41;99664.38;;;17.98;84.29
11223;BME280;5668;52.012;8.724;2023-08-31T15:24:10;99665.19;;;17.99;84.31
11223;BME280;5668;52.012;8.724;2023-08-31T15:26:37;99661.91;;;17.97;83.69
11223;BME280;5668;52.012;8.724;2023-08-31T15:29:04;99665.38;;;17.97;83.71
11223;BME280;5668;52.012;8.724;2023-08-31T15:31:32;99659.28;;;17.97;83.90
11223;BME280;5668;52.012;8.724;2023-08-31T15:33:59;99662.75;;;17.97;84.13
11223;BME280;5668;52.012;8.724;2023-08-31T15:36:26;99666.38;;;17.96;84.16
11223;BME280;5668;52.012;8.724;2023-08-31T15:38:55;99669.00;;;17.96;84.42
11223;BME280;5668;52.012;8.724;2023-08-31T15:41:24;99667.38;;;17.95;85.28
11223;BME280;5668;52.012;8.724;2023-08-31T15:43:51;99655.88;;;17.96;85.50
11223;BME280;5668;52.012;8.724;2023-08-31T15:46:18;99674.44;;;17.95;84.93
11223;BME280;5668;52.012;8.724;2023-08-31T15:48:47;99674.28;;;17.96;85.08
11223;BME280;5668;52.012;8.724;2023-08-31T15:51:15;99672.63;;;17.95;85.33
11223;BME280;5668;52.012;8.724;2023-08-31T15:53:42;99668.00;;;17.97;85.71
11223;BME280;5668;52.012;8.724;2023-08-31T15:56:09;99670.81;;;17.96;86.31
11223;BME280;5668;52.012;8.724;2023-08-31T15:58:37;99684.59;;;17.98;86.37
11223;BME280;5668;52.012;8.724;2023-08-31T16:01:09;99697.94;;;17.96;86.66
11223;BME280;5668;52.012;8.724;2023-08-31T16:03:36;99694.66;;;17.94;86.78
11223;BME280;5668;52.012;8.724;2023-08-31T16:06:05;99693.00;;;17.93;86.94
11223;BME280;5668;52.012;8.724;2023-08-31T16:08:34;99696.63;;;17.92;86.50
11223;BME280;5668;52.012;8.724;2023-08-31T16:11:03;99694.81;;;17.93;86.17
11223;BME280;5668;52.012;8.724;2023-08-31T16:13:30;99687.75;;;17.93;86.51
11223;BME280;5668;52.012;8.724;2023-08-31T16:15:59;99683.31;;;17.94;86.32
11223;BME280;5668;52.012;8.724;2023-08-31T16:18:27;99687.75;;;17.93;86.06
11223;BME280;5668;52.012;8.724;2023-08-31T16:20:54;99682.16;;;17.96;85.85
11223;BME280;5668;52.012;8.724;2023-08-31T16:23:21;99684.44;;;17.99;86.13
11223;BME280;5668;52.012;8.724;2023-08-31T16:25:49;99677.53;;;17.98;86.58
11223;BME280;5668;52.012;8.724;2023-08-31T16:28:16;99680.53;;;17.95;85.78
11223;BME280;5668;52.012;8.724;2023-08-31T16:30:46;99679.53;;;17.96;84.71
11223;BME280;5668;52.012;8.724;2023-08-31T16:33:15;99682.16;;;17.96;84.69
11223;BME280;5668;52.012;8.724;2023-08-31T16:35:43;99689.03;;;17.97;84.47
11223;BME280;5668;52.012;8.724;2023-08-31T16:38:10;99676.53;;;17.99;84.62
11223;BME280;5668;52.012;8.724;2023-08-31T16:40:37;99679.81;;;18.01;84.75
11223;BME280;5668;52.012;8.724;2023-08-31T16:43:05;99693.63;;;18.03;84.62
11223;BME280;5668;52.012;8.724;2023-08-31T16:45:32;99695.25;;;18.04;84.96
11223;BME280;5668;52.012;8.724;2023-08-31T16:47:59;99702.97;;;18.06;85.36
11223;BME280;5668;52.012;8.724;2023-08-31T16:50:32;99688.00;;;18.06;85.31
11223;BME280;5668;52.012;8.724;2023-08-31T16:53:00;99695.91;;;18.06;85.26
11223;BME280;5668;52.012;8.724;2023-08-31T16:55:29;99689.81;;;18.06;85.16
11223;BME280;5668;52.012;8.724;2023-08-31T16:57:56;99698.53;;;18.06;84.90
11223;BME280;5668;52.012;8.724;2023-08-31T17:00:25;99699.34;;;18.07;84.93
11223;BME280;5668;52.012;8.724;2023-08-31T17:02:52;99689.66;;;18.07;84.69
11223;BME280;5668;52.012;8.724;2023-08-31T17:05:19;99697.88;;;18.04;85.11
11223;BME280;5668;52.012;8.724;2023-08-31T17:07:49;99703.50;;;18.01;84.73
11223;BME280;5668;52.012;8.724;2023-08-31T17:10:16;99706.44;;;17.98;85.22
11223;BME280;5668;52.012;8.724;2023-08-31T17:12:44;99704.81;;;17.97;85.13
11223;BME280;5668;52.012;8.724;2023-08-31T17:15:11;99711.41;;;17.93;85.04
11223;BME280;5668;52.012;8.724;2023-08-31T17:17:38;99715.19;;;17.91;85.76
11223;BME280;5668;52.012;8.724;2023-08-31T17:20:11;99715.88;;;17.85;86.40
11223;BME280;5668;52.012;8.724;2023-08-31T17:22:42;99715.41;;;17.81;87.28
11223;BME280;5668;52.012;8.724;2023-08-31T17:25:11;99711.13;;;17.80;87.59
11223;BME280;5668;52.012;8.724;2023-08-31T17:27:38;99713.91;;;17.78;88.45
11223;BME280;5668;52.012;8.724;2023-08-31T17:30:06;99714.75;;;17.79;88.88
11223;BME280;5668;52.012;8.724;2023-08-31T17:32:35;99708.66;;;17.78;89.67
11223;BME280;5668;52.012;8.724;2023-08-31T17:35:03;99719.00;;;17.80;90.47
11223;BME280;5668;52.012;8.724;2023-08-31T17:37:32;99722.63;;;17.79;90.93
11223;BME280;5668;52.012;8.724;2023-08-31T17:40:00;99714.06;;;17.77;91.39
11223;BME280;5668;52.012;8.724;2023-08-31T17:42:34;99720.84;;;17.71;91.37
11223;BME280;5668;52.012;8.724;2023-08-31T17:45:02;99716.72;;;17.69;90.94
11223;BME280;5668;52.012;8.724;2023-08-31T17:47:30;99715.06;;;17.68;90.95
11223;BME280;5668;52.012;8.724;2023-08-31T17:49:57;99709.19;;;17.66;90.58
11223;BME280;5668;52.012;8.724;2023-08-31T17:52:24;99718.69;;;17.67;91.02
11223;BME280;5668;52.012;8.724;2023-08-31T17:54:52;99723.16;;;17.66;91.40
11223;BME280;5668;52.012;8.724;2023-08-31T17:57:20;99722.81;;;17.61;91.34
11223;BME280;5668;52.012;8.724;2023-08-31T17:59:49;99724.94;;;17.58;91.04
11223;BME280;5668;52.012;8.724;2023-08-31T18:02:16;99720.00;;;17.55;91.26
11223;BME280;5668;52.012;8.724;2023-08-31T18:04:43;99722.78;;;17.53;91.66
11223;BME280;5668;52.012;8.724;2023-08-31T18:07:10;99725.75;;;17.50;91.63
11223;BME280;5668;52.012;8.724;2023-08-31T18:09:38;99722.63;;;17.47;91.73
11223;BME280;5668;52.012;8.724;2023-08-31T18:12:06;99734.13;;;17.46;92.21
11223;BME280;5668;52.012;8.724;2023-08-31T18:14:35;99740.38;;;17.45;92.08
11223;BME280;5668;52.012;8.724;2023-08-31T18:17:04;99745.63;;;17.45;92.21
11223;BME280;5668;52.012;8.724;2023-08-31T18:19:32;99739.06;;;17.40;92.56
11223;BME280;5668;52.012;8.724;2023-08-31T18:22:01;99746.63;;;17.35;92.92
11223;BME280;5668;52.012;8.724;2023-08-31T18:24:28;99752.19;;;17.32;93.60
11223;BME280;5668;52.012;8.724;2023-08-31T18:26:55;99759.41;;;17.30;93.38
11223;BME280;5668;52.012;8.724;2023-08-31T18:29:23;99771.09;;;17.28;93.34
11223;BME280;5668;52.012;8.724;2023-08-31T18:31:50;99772.22;;;17.25;93.51
11223;BME280;5668;52.012;8.724;2023-08-31T18:34:18;99772.22;;;17.25;93.45
11223;BME280;5668;52.012;8.724;2023-08-31T18:36:46;99778.63;;;17.23;93.63
11223;BME280;5668;52.012;8.724;2023-08-31T18:39:13;99777.78;;;17.22;93.44
11223;BME280;5668;52.012;8.724;2023-08-31T18:41:40;99779.13;;;17.18;93.21
11223;BME280;5668;52.012;8.724;2023-08-31T18:44:07;99778.44;;;17.16;93.51
11223;BME280;5668;52.012;8.724;2023-08-31T18:46:35;99776.31;;;17.12;93.56
11223;BME280;5668;52.012;8.724;2023-08-31T18:49:13;99778.44;;;17.08;94.13
11223;BME280;5668;52.012;8.724;2023-08-31T18:51:43;99780.72;;;17.03;93.89
11223;BME280;5668;52.012;8.724;2023-08-31T18:54:11;99782.38;;;17.04;94.50
11223;BME280;5668;52.012;8.724;2023-08-31T18:56:38;99784.50;;;17.00;93.83
11223;BME280;5668;52.012;8.724;2023-08-31T18:59:06;99782.84;;;16.99;93.87
11223;BME280;5668;52.012;8.724;2023-08-31T19:01:33;99784.31;;;16.94;93.98
11223;BME280;5668;52.012;8.724;2023-08-31T19:04:07;99783.84;;;16.90;94.73
11223;BME280;5668;52.012;8.724;2023-08-31T19:06:34;99782.34;;;16.88;94.49